Time;durP1;ratioP1;P1;durP2;ratioP2;P2;SDS_P1;SDS_P2;PMS_P1;PMS_P2;Temp;Humidity;BMP_temperature;BMP_pressure;BME280_temperature;BME280_humidity;BME280_pressure;Samples;Min_cycle;Max_cycle;Signal;HPM_P1;HPM_P2
2024/03/22 00:00:38;;;;;;;61.60;42.20;;;;;;;8.65;84.32;100145.22;103433;1254;107220;-74
2024/03/22 00:03:25;;;;;;;60.20;40.40;;;;;;;8.70;84.51;100147.86;103463;1255;99146;-75
2024/03/22 00:05:52;;;;;;;59.10;41.30;;;;;;;8.71;84.54;100142.97;103418;1255;112018;-75
2024/03/22 00:08:18;;;;;;;60.40;40.70;;;;;;;8.73;84.60;100141.01;103370;1251;138790;-74
2024/03/22 00:10:44;;;;;;;;;;;;;;;8.75;84.67;100141.14;103472;1255;99332;-75
2024/03/22 00:13:10;;;;;;;57.60;40.70;;;;;;;8.76;84.93;100138.16;103278;1253;125040;-75
2024/03/22 00:15:35;;;;;;;;;;;;;;;8.78;85.07;100136.88;103472;1251;99127;-74
2024/03/22 00:18:01;;;;;;;58.40;40.90;;;;;;;8.79;85.32;100135.64;103330;1252;114125;-76
2024/03/22 00:20:26;;;;;;;;;;;;;;;8.79;85.31;100134.09;103262;1255;140650;-75
2024/03/22 00:22:52;;;;;;;61.60;42.60;;;;;;;8.80;85.59;100131.31;103403;1251;99153;-75
2024/03/22 00:25:17;;;;;;;;;;;;;;;8.82;85.75;100129.54;103345;1255;139188;-75
2024/03/22 00:27:44;;;;;;;62.10;41.50;;;;;;;8.81;85.94;100131.46;103340;1255;99044;-75
2024/03/22 00:30:10;;;;;;;;;;;;;;;8.80;86.02;100129.58;103503;1255;111964;-75
2024/03/22 00:32:36;;;;;;;57.50;42.20;;;;;;;8.79;86.08;100129.05;103321;1255;126700;-75
2024/03/22 00:35:01;;;;;;;;;;;;;;;8.80;86.33;100132.17;103511;1255;99179;-75
2024/03/22 00:37:27;;;;;;;63.60;43.50;;;;;;;8.80;86.56;100130.77;103258;1252;124954;-74
2024/03/22 00:39:54;;;;;;;59.40;42.40;;;;;;;8.79;86.82;100127.50;103513;1253;99153;-74
2024/03/22 00:42:21;;;;;;;65.70;43.70;;;;;;;8.82;87.19;100130.06;103428;1255;111051;-74
2024/03/22 00:44:47;;;;;;;63.50;44.90;;;;;;;8.83;87.50;100124.27;103372;1255;138920;-75
2024/03/22 00:47:14;;;;;;;64.10;44.10;;;;;;;8.85;87.66;100124.56;103418;1255;99131;-74
2024/03/22 00:49:40;;;;;;;61.00;44.00;;;;;;;8.86;87.81;100123.69;103374;1251;138762;-75
2024/03/22 00:52:05;;;;;;;;;;;;;;;8.88;88.03;100118.94;103452;1251;99165;-74
2024/03/22 00:54:32;;;;;;;63.80;44.90;;;;;;;8.88;88.11;100119.13;103428;1252;132622;-74
2024/03/22 00:56:59;;;;;;;65.10;46.40;;;;;;;8.87;88.11;100118.45;103282;1251;139275;-75
2024/03/22 00:59:25;;;;;;;67.50;45.30;;;;;;;8.85;88.34;100111.74;103369;1255;99240;-74
2024/03/22 01:01:50;;;;;;;;;;;;;;;8.84;88.29;100113.16;103351;1251;138674;-74
2024/03/22 01:04:17;;;;;;;62.10;43.70;;;;;;;8.83;88.65;100108.69;103483;1252;99047;-74
2024/03/22 01:06:43;;;;;;;64.00;47.00;;;;;;;8.83;88.79;100115.96;103435;1255;112474;-73
2024/03/22 01:09:08;;;;;;;;;;;;;;;8.83;88.85;100120.14;103314;1255;138957;-76
2024/03/22 01:11:34;;;;;;;65.30;45.60;;;;;;;8.81;89.07;100121.92;103436;1251;99163;-75
2024/03/22 01:13:59;;;;;;;;;;;;;;;8.78;89.19;100119.73;103400;1251;138625;-75
2024/03/22 01:16:26;;;;;;;70.40;48.40;;;;;;;8.76;89.48;100120.80;103438;1255;99206;-74
2024/03/22 01:18:52;;;;;;;67.60;47.60;;;;;;;8.76;89.71;100116.82;103519;1251;113542;-73
2024/03/22 01:21:17;;;;;;;;;;;;;;;8.75;89.73;100112.69;103344;1252;138704;-73
2024/03/22 01:23:43;;;;;;;69.60;48.50;;;;;;;8.74;89.88;100110.82;103440;1251;99275;-74
2024/03/22 01:26:09;;;;;;;;;;;;;;;8.73;90.02;100110.52;103388;1253;138615;-76
2024/03/22 01:28:36;;;;;;;72.10;49.90;;;;;;;8.72;90.23;100108.64;103432;1253;99783;-74
2024/03/22 01:31:03;;;;;;;72.50;50.00;;;;;;;8.72;90.45;100104.83;103424;1252;112749;-74
2024/03/22 01:33:29;;;;;;;72.90;50.10;;;;;;;8.72;90.46;100102.21;102700;1253;1003771;-75
2024/03/22 01:35:54;;;;;;;;;;;;;;;8.72;90.60;100107.58;103475;1255;99182;-73
2024/03/22 01:38:20;;;;;;;75.30;50.30;;;;;;;8.72;90.78;100110.52;103241;1255;124829;-73
2024/03/22 01:40:45;;;;;;;;;;;;;;;8.72;91.01;100112.08;103418;1253;100476;-74
2024/03/22 01:43:12;;;;;;;76.30;51.70;;;;;;;8.71;91.14;100112.48;103303;1253;125543;-73
2024/03/22 01:45:37;;;;;;;;;;;;;;;8.69;91.28;100111.98;103391;1252;107653;-75
2024/03/22 01:48:04;;;;;;;80.90;52.50;;;;;;;8.68;91.43;100110.98;103451;1255;100469;-74
2024/03/22 01:50:31;;;;;;;76.60;51.70;;;;;;;8.68;91.53;100110.83;103366;1252;138813;-74
2024/03/22 01:52:58;;;;;;;77.60;52.00;;;;;;;8.66;91.62;100107.40;103394;1252;99141;-75
2024/03/22 01:55:24;;;;;;;76.20;51.90;;;;;;;8.70;91.90;100108.16;103286;1252;139562;-74
2024/03/22 01:57:52;;;;;;;77.90;52.20;;;;;;;8.70;92.05;100106.07;103433;1253;106719;-73
2024/03/22 02:00:20;;;;;;;81.40;51.70;;;;;;;8.71;92.17;100110.39;103444;1253;99795;-72
2024/03/22 02:02:46;;;;;;;81.50;52.80;;;;;;;8.71;92.38;100103.46;103332;1251;138756;-73
2024/03/22 02:05:19;;;;;;;85.10;53.30;;;;;;;8.71;92.50;100097.05;103399;1252;99225;-72
2024/03/22 02:07:45;;;;;;;75.70;52.40;;;;;;;8.72;92.69;100093.36;103296;1252;138972;-73
2024/03/22 02:10:13;;;;;;;79.80;52.10;;;;;;;8.73;92.89;100093.35;103405;1251;107107;-73
2024/03/22 02:12:40;;;;;;;86.10;52.80;;;;;;;8.74;93.02;100095.05;103394;1253;99137;-72
2024/03/22 02:15:08;;;;;;;84.60;51.60;;;;;;;8.76;93.22;100097.08;103299;1251;139715;-72
2024/03/22 02:17:35;;;;;;;94.40;52.40;;;;;;;8.78;93.28;100097.54;103361;1252;99345;-73
2024/03/22 02:20:02;;;;;;;84.60;50.10;;;;;;;8.80;93.39;100097.67;103339;1253;138753;-72
2024/03/22 02:22:28;;;;;;;75.70;51.50;;;;;;;8.82;93.42;100093.13;103412;1255;107242;-74
2024/03/22 02:24:55;;;;;;;81.60;50.50;;;;;;;8.84;93.52;100090.63;103488;1255;100459;-74
2024/03/22 02:27:21;;;;;;;73.20;48.40;;;;;;;8.85;93.56;100089.89;103289;1255;139466;-74
2024/03/22 02:29:46;;;;;;;;;;;;;;;8.86;93.50;100087.98;103406;1251;99255;-74
2024/03/22 02:32:13;;;;;;;72.50;48.50;;;;;;;8.84;93.74;100089.59;103316;1255;125025;-73
2024/03/22 02:34:39;;;;;;;71.90;49.10;;;;;;;8.84;93.75;100087.84;103371;1253;107096;-73
2024/03/22 02:37:25;;;;;;;65.80;45.30;;;;;;;8.86;93.80;100080.87;103283;1255;138990;-73
2024/03/22 02:39:50;;;;;;;;;;;;;;;8.87;93.80;100084.81;103391;1255;107301;-74
2024/03/22 02:42:16;;;;;;;69.60;46.00;;;;;;;8.85;93.93;100082.45;103377;1251;99140;-75
2024/03/22 02:44:43;;;;;;;68.40;46.30;;;;;;;8.87;94.05;100086.90;103316;1256;138878;-74
2024/03/22 02:47:10;;;;;;;70.10;46.00;;;;;;;8.88;94.08;100087.41;103348;1255;107031;-74
2024/03/22 02:49:38;;;;;;;72.20;48.20;;;;;;;8.88;94.16;100084.09;103436;1253;139189;-74
2024/03/22 02:52:05;;;;;;;74.00;48.60;;;;;;;8.89;94.18;100088.20;103410;1251;108009;-75
2024/03/22 02:54:31;;;;;;;74.60;48.40;;;;;;;8.91;94.18;100087.48;103763;1251;99077;-75
2024/03/22 02:56:58;;;;;;;72.90;49.60;;;;;;;8.91;94.08;100082.11;103381;1255;139634;-74
2024/03/22 02:59:26;;;;;;;69.80;48.50;;;;;;;8.90;94.07;100086.12;103580;1251;106698;-74
2024/03/22 03:01:52;;;;;;;78.80;48.80;;;;;;;8.91;94.25;100086.42;103605;1255;139242;-76
2024/03/22 03:04:19;;;;;;;72.60;48.30;;;;;;;8.92;94.17;100086.76;103436;1252;107431;-75
2024/03/22 03:06:46;;;;;;;76.90;51.20;;;;;;;8.91;94.13;100086.93;103397;1253;99179;-75
2024/03/22 03:09:12;;;;;;;78.20;48.40;;;;;;;8.92;94.15;100084.84;103422;1253;138680;-75
2024/03/22 03:11:40;;;;;;;72.90;48.30;;;;;;;8.91;94.25;100082.60;103327;1255;107554;-75
2024/03/22 03:14:07;;;;;;;74.40;49.00;;;;;;;8.90;94.26;100081.27;103524;1251;138966;-74
2024/03/22 03:16:33;;;;;;;79.50;50.60;;;;;;;8.88;94.31;100083.23;103508;1253;108152;-74
2024/03/22 03:19:00;;;;;;;85.70;53.20;;;;;;;8.86;94.39;100079.98;102712;1255;1003472;-74
2024/03/22 03:21:28;;;;;;;84.30;52.30;;;;;;;8.84;94.35;100084.73;103768;1253;111045;-74
2024/03/22 03:23:53;;;;;;;;;;;;;;;8.83;94.33;100087.89;103447;1255;106720;-74
2024/03/22 03:26:19;;;;;;;78.80;50.50;;;;;;;8.81;94.41;100089.16;103374;1255;125363;-76
2024/03/22 03:28:46;;;;;;;79.30;51.00;;;;;;;8.79;94.65;100091.61;103312;1251;107946;-76
2024/03/22 03:31:12;;;;;;;74.30;50.00;;;;;;;8.77;94.45;100094.95;103298;1251;139421;-75
2024/03/22 03:33:37;;;;;;;;;;;;;;;8.76;94.58;100095.16;103524;1252;113252;-76
2024/03/22 03:36:04;;;;;;;71.60;48.60;;;;;;;8.72;94.53;100092.52;103391;1255;107763;-76
2024/03/22 03:38:31;;;;;;;71.90;48.00;;;;;;;8.67;95.00;100094.73;103336;1251;138964;-75
2024/03/22 03:40:57;;;;;;;72.30;47.90;;;;;;;8.63;94.86;100094.83;103442;1252;106855;-76
2024/03/22 03:43:22;;;;;;;;;;;;;;;8.58;94.91;100091.33;103322;1252;140819;-74
2024/03/22 03:45:48;;;;;;;67.40;43.90;;;;;;;8.48;94.76;100092.99;103474;1255;114506;-73
2024/03/22 03:48:13;;;;;;;;;;;;;;;8.40;94.67;100096.80;103426;1252;107329;-75
2024/03/22 03:50:40;;;;;;;70.30;43.70;;;;;;;8.32;94.97;100098.73;103348;1252;125753;-74
2024/03/22 03:53:06;;;;;;;65.90;43.80;;;;;;;8.24;94.90;100103.25;103456;1252;106972;-76
2024/03/22 03:55:33;;;;;;;69.70;44.90;;;;;;;8.19;94.98;100107.88;103369;1251;139100;-74
2024/03/22 03:57:59;;;;;;;66.50;42.60;;;;;;;8.15;95.30;100108.16;103518;1255;112759;-74
2024/03/22 04:00:26;;;;;;;61.80;40.00;;;;;;;8.07;95.22;100110.95;103458;1255;107322;-75
2024/03/22 04:02:52;;;;;;;63.30;40.30;;;;;;;7.99;95.13;100113.20;103370;1255;138598;-74
2024/03/22 04:05:20;;;;;;;63.10;41.10;;;;;;;7.92;95.11;100114.94;103470;1252;108345;-74
2024/03/22 04:07:50;;;;;;;64.30;40.10;;;;;;;7.82;94.98;100114.80;103310;1255;139337;-75
2024/03/22 04:10:17;;;;;;;69.20;40.20;;;;;;;7.73;94.97;100122.47;103550;1251;113506;-75
2024/03/22 04:12:45;;;;;;;62.90;39.30;;;;;;;7.66;94.86;100129.39;103427;1255;106888;-75
2024/03/22 04:15:13;;;;;;;68.60;40.80;;;;;;;7.63;95.03;100136.90;103969;1253;139246;-74
2024/03/22 04:17:40;;;;;;;68.90;41.10;;;;;;;7.59;95.24;100135.07;103393;1252;108756;-75
2024/03/22 04:20:08;;;;;;;67.30;40.90;;;;;;;7.55;95.40;100136.02;103344;1253;138784;-75
2024/03/22 04:22:34;;;;;;;71.80;43.70;;;;;;;7.51;95.58;100135.23;103546;1253;111914;-74
2024/03/22 04:25:01;;;;;;;68.50;42.80;;;;;;;7.47;95.49;100130.81;103452;1255;106656;-75
2024/03/22 04:27:26;;;;;;;;;;;;;;;7.46;95.57;100134.13;103423;1252;138448;-75
2024/03/22 04:29:52;;;;;;;74.60;44.30;;;;;;;7.44;95.61;100133.48;103423;1252;107589;-75
2024/03/22 04:32:19;;;;;;;76.90;43.50;;;;;;;7.44;95.90;100136.08;103258;1252;138815;-74
2024/03/22 04:34:45;;;;;;;80.00;45.60;;;;;;;7.46;96.06;100134.84;103453;1253;112616;-74
2024/03/22 04:37:12;;;;;;;75.70;44.10;;;;;;;7.46;95.94;100139.85;103409;1253;138999;-74
2024/03/22 04:39:38;;;;;;;69.70;43.50;;;;;;;7.45;95.97;100135.88;103486;1251;99146;-75
2024/03/22 04:42:05;;;;;;;72.10;44.10;;;;;;;7.43;95.92;100130.05;103679;1255;107662;-75
2024/03/22 04:44:32;;;;;;;72.00;43.90;;;;;;;7.45;96.01;100130.35;104214;1253;139720;-76
2024/03/22 04:46:57;;;;;;;;;;;;;;;7.48;96.06;100133.05;104035;1253;112019;-75
2024/03/22 04:49:23;;;;;;;74.20;43.30;;;;;;;7.48;96.03;100135.47;103765;1255;125960;-75
2024/03/22 04:51:48;;;;;;;;;;;;;;;7.49;96.00;100135.63;103389;1255;99306;-76
2024/03/22 04:54:14;;;;;;;66.50;41.70;;;;;;;7.48;95.98;100136.86;103450;1251;108733;-75
2024/03/22 04:56:41;;;;;;;71.30;42.90;;;;;;;7.49;96.11;100142.90;103316;1253;138634;-75
2024/03/22 04:59:07;;;;;;;69.30;42.20;;;;;;;7.49;95.73;100141.35;103547;1253;111926;-76
2024/03/22 05:01:32;;;;;;;;;;;;;;;7.49;95.86;100139.59;103157;1255;140663;-75
2024/03/22 05:03:59;;;;;;;65.60;42.50;;;;;;;7.49;95.85;100142.20;103378;1256;99195;-74
2024/03/22 05:06:25;;;;;;;66.90;43.00;;;;;;;7.49;95.85;100146.52;103451;1255;107001;-75
2024/03/22 05:08:51;;;;;;;64.60;41.30;;;;;;;7.52;96.00;100148.54;103341;1253;138868;-74
2024/03/22 05:11:18;;;;;;;61.10;41.10;;;;;;;7.55;95.89;100148.14;103542;1255;112778;-75
2024/03/22 05:13:45;;;;;;;60.90;39.50;;;;;;;7.57;95.62;100150.17;104596;1251;138850;-74
2024/03/22 05:16:13;;;;;;;59.20;37.70;;;;;;;7.59;95.51;100148.58;103617;1253;99150;-74
2024/03/22 05:18:37;;;;;;;;;;;;;;;7.61;95.26;100149.39;103399;1254;107250;-75
2024/03/22 05:21:04;;;;;;;58.80;39.50;;;;;;;7.61;95.29;100146.46;103349;1256;125175;-74
2024/03/22 05:23:30;;;;;;;58.40;38.60;;;;;;;7.61;95.18;100146.44;103415;1253;112884;-74
2024/03/22 05:25:57;;;;;;;57.90;39.00;;;;;;;7.63;95.14;100140.17;103309;1253;138728;-74
2024/03/22 05:28:22;;;;;;;;;;;;;;;7.66;94.93;100144.25;103373;1253;99089;-74
2024/03/22 05:30:49;;;;;;;57.10;37.00;;;;;;;7.65;94.64;100144.45;103411;1255;107189;-74
2024/03/22 05:33:15;;;;;;;58.60;37.80;;;;;;;7.66;94.71;100146.68;103664;1253;138723;-75
2024/03/22 05:35:42;;;;;;;61.60;40.10;;;;;;;7.69;94.64;100143.14;103450;1255;111983;-75
2024/03/22 05:38:08;;;;;;;51.70;37.00;;;;;;;7.73;94.58;100147.77;103353;1253;138601;-74
2024/03/22 05:40:37;;;;;;;59.60;39.70;;;;;;;7.76;94.50;100146.64;103404;1252;99839;-75
2024/03/22 05:43:05;;;;;;;56.90;38.80;;;;;;;7.80;94.37;100145.00;103503;1251;106043;-76
2024/03/22 05:45:32;;;;;;;57.50;38.20;;;;;;;7.82;94.26;100141.64;103460;1255;99223;-72
2024/03/22 05:47:59;;;;;;;55.80;38.30;;;;;;;7.87;94.15;100146.89;103411;1252;112558;-69
2024/03/22 05:50:25;;;;;;;57.10;38.20;;;;;;;7.90;94.04;100148.06;103263;1255;138613;-70
2024/03/22 05:52:52;;;;;;;57.60;38.60;;;;;;;7.93;93.81;100149.72;103428;1255;99067;-70
2024/03/22 05:55:19;;;;;;;55.10;37.40;;;;;;;7.96;93.60;100150.33;103346;1252;139004;-70
2024/03/22 05:57:45;;;;;;;54.90;37.50;;;;;;;7.98;93.39;100145.44;103966;1255;99091;-71
2024/03/22 06:00:13;;;;;;;;;;;;;;;8.00;93.12;100139.00;103365;1254;111794;-72
2024/03/22 06:02:39;;;;;;;55.90;36.70;;;;;;;8.01;92.93;100139.31;103471;1253;125393;-71
2024/03/22 06:05:07;;;;;;;48.30;35.60;;;;;;;8.01;92.86;100139.99;103521;1251;99680;-72
2024/03/22 06:07:40;;;;;;;50.10;35.90;;;;;;;8.03;92.69;100134.41;103290;1251;140118;-72
2024/03/22 06:10:09;;;;;;;52.40;35.80;;;;;;;8.07;92.57;100138.13;103487;1251;99158;-71
2024/03/22 06:12:36;;;;;;;51.30;35.10;;;;;;;8.12;92.39;100143.03;103978;1251;113149;-71
2024/03/22 06:15:05;;;;;;;50.10;36.20;;;;;;;8.16;92.28;100141.38;103328;1256;139444;-71
2024/03/22 06:17:32;;;;;;;49.10;34.70;;;;;;;8.19;92.00;100147.38;103580;1256;99164;-73
2024/03/22 06:19:59;;;;;;;49.40;34.70;;;;;;;8.20;91.82;100146.65;103359;1251;138735;-72
2024/03/22 06:22:26;;;;;;;52.60;34.00;;;;;;;8.22;91.63;100151.09;103487;1254;99144;-72
2024/03/22 06:24:52;;;;;;;51.10;34.60;;;;;;;8.24;91.49;100151.56;103510;1256;112227;-70
2024/03/22 06:27:19;;;;;;;49.70;33.30;;;;;;;8.24;91.30;100149.49;103317;1256;138703;-71
2024/03/22 06:29:44;;;;;;;;;;;;;;;8.25;91.17;100150.14;103525;1255;99215;-71
2024/03/22 06:32:10;;;;;;;47.10;31.80;;;;;;;8.25;91.03;100147.58;103356;1251;125002;-71
2024/03/22 06:34:38;;;;;;;48.40;33.00;;;;;;;8.25;91.06;100147.22;103509;1255;99167;-71
2024/03/22 06:37:05;;;;;;;47.00;32.90;;;;;;;8.27;91.06;100148.23;103409;1251;111797;-71
2024/03/22 06:39:31;;;;;;;47.10;34.00;;;;;;;8.29;91.06;100145.91;103472;1255;107626;-72
2024/03/22 06:41:56;;;;;;;;;;;;;;;8.33;91.12;100144.61;103513;1255;99165;-71
2024/03/22 06:44:22;;;;;;;48.30;32.50;;;;;;;8.37;91.06;100146.09;103271;1256;126622;-71
2024/03/22 06:46:49;;;;;;;43.90;30.60;;;;;;;8.41;90.98;100144.25;103344;1257;99272;-71
2024/03/22 06:49:15;;;;;;;44.10;31.10;;;;;;;8.46;90.64;100149.52;103368;1256;140347;-72
2024/03/22 06:51:42;;;;;;;46.50;32.20;;;;;;;8.49;90.33;100155.50;103392;1254;107095;-71
2024/03/22 06:54:07;;;;;;;;;;;;;;;8.54;90.32;100153.80;103512;1256;99027;-70
2024/03/22 06:56:33;;;;;;;48.40;30.90;;;;;;;8.58;90.22;100152.67;103364;1256;124771;-70
2024/03/22 06:58:58;;;;;;;;;;;;;;;8.61;90.11;100148.44;103461;1267;100050;-70
2024/03/22 07:01:25;;;;;;;45.60;31.30;;;;;;;8.63;89.91;100150.98;103425;1255;125131;-69
2024/03/22 07:03:50;;;;;;;;;;;;;;;8.66;89.71;100147.45;103455;1257;107918;-71
2024/03/22 07:06:17;;;;;;;42.70;29.40;;;;;;;8.70;89.65;100144.73;103435;1256;99704;-72
2024/03/22 07:08:44;;;;;;;39.00;28.30;;;;;;;8.74;89.26;100144.27;103402;1254;140090;-70
2024/03/22 07:11:11;;;;;;;42.20;30.10;;;;;;;8.82;89.03;100147.02;103395;1254;99212;-72
2024/03/22 07:13:37;;;;;;;39.70;29.40;;;;;;;8.90;88.73;100151.30;103392;1255;139021;-71
2024/03/22 07:16:06;;;;;;;44.20;30.60;;;;;;;8.97;88.58;100149.05;103393;1256;107812;-71
2024/03/22 07:18:32;;;;;;;41.70;29.00;;;;;;;9.01;87.97;100150.86;103502;1255;99174;-71
2024/03/22 07:21:01;;;;;;;;;;;;;;;9.01;87.44;100153.29;103335;1254;139449;-72
2024/03/22 07:23:27;;;;;;;44.60;30.10;;;;;;;8.98;87.17;100154.75;103465;1256;99078;-70
2024/03/22 07:25:54;;;;;;;43.30;30.70;;;;;;;8.94;87.05;100157.44;103188;1259;139351;-72
2024/03/22 07:28:19;;;;;;;;;;;;;;;8.95;87.14;100157.05;103456;1258;107159;-72
2024/03/22 07:30:45;;;;;;;46.20;29.20;;;;;;;8.96;87.14;100154.61;103445;1257;99152;-72
2024/03/22 07:33:13;;;;;;;;;;;;;;;8.97;87.22;100149.20;103303;1255;138937;-71
2024/03/22 07:35:38;;;;;;;;;;;;;;;8.98;87.56;100150.38;103384;1256;99168;-71
2024/03/22 07:38:05;;;;;;;44.90;30.90;;;;;;;9.01;87.54;100150.65;103351;1256;125241;-71
2024/03/22 07:40:31;;;;;;;45.10;31.60;;;;;;;9.02;87.54;100148.03;103374;1257;108162;-71
2024/03/22 07:42:56;;;;;;;;;;;;;;;9.06;87.30;100142.53;103357;1256;99132;-70
2024/03/22 07:45:23;;;;;;;43.10;29.50;;;;;;;9.09;87.09;100143.50;103294;1256;124929;-71
2024/03/22 07:47:50;;;;;;;42.40;30.10;;;;;;;9.15;87.06;100142.47;103378;1257;99082;-77
2024/03/22 07:50:17;;;;;;;41.90;30.60;;;;;;;9.20;86.78;100143.73;103313;1253;139339;-76
2024/03/22 07:52:43;;;;;;;41.50;28.10;;;;;;;9.18;86.01;100142.06;103451;1255;107649;-75
2024/03/22 07:55:10;;;;;;;40.20;29.00;;;;;;;9.15;85.62;100137.98;103346;1256;139177;-76
2024/03/22 07:57:37;;;;;;;42.70;29.70;;;;;;;9.14;85.31;100139.20;103347;1254;107977;-76
2024/03/22 08:00:04;;;;;;;37.00;27.70;;;;;;;9.09;85.07;100137.09;103455;1254;99132;-75
2024/03/22 08:02:37;;;;;;;35.50;26.10;;;;;;;9.07;85.12;100132.80;103346;1254;140391;-76
2024/03/22 08:05:04;;;;;;;35.70;26.70;;;;;;;9.08;85.03;100135.38;103204;1258;107178;-75
2024/03/22 08:07:32;;;;;;;36.30;27.10;;;;;;;9.08;84.89;100135.54;103425;1257;139139;-74
2024/03/22 08:10:01;;;;;;;36.30;26.20;;;;;;;9.09;84.89;100135.70;103411;1258;109934;-76
2024/03/22 08:12:30;;;;;;;33.90;25.30;;;;;;;9.12;84.88;100133.54;103459;1254;99207;-74
2024/03/22 08:14:56;;;;;;;32.00;23.80;;;;;;;9.12;84.56;100132.84;103349;1253;138734;-74
2024/03/22 08:17:23;;;;;;;32.90;25.30;;;;;;;9.13;84.40;100129.34;103494;1256;107652;-75
2024/03/22 08:19:50;;;;;;;36.10;27.40;;;;;;;9.09;84.20;100128.58;103386;1257;138979;-75
2024/03/22 08:22:16;;;;;;;39.50;28.60;;;;;;;9.07;84.17;100127.77;103456;1256;106852;-74
2024/03/22 08:24:41;;;;;;;;;;;;;;;9.08;84.30;100126.37;103479;1254;99270;-75
2024/03/22 08:27:08;;;;;;;38.90;29.10;;;;;;;9.08;84.38;100124.80;103377;1251;124798;-76
2024/03/22 08:29:35;;;;;;;39.40;27.90;;;;;;;9.12;84.48;100129.38;103418;1256;107229;-75
2024/03/22 08:32:04;;;;;;;37.80;28.10;;;;;;;9.16;84.50;100127.89;103332;1254;138845;-76
2024/03/22 08:34:32;;;;;;;38.40;27.90;;;;;;;9.17;84.46;100130.64;103440;1256;108012;-75
2024/03/22 08:36:58;;;;;;;37.90;28.50;;;;;;;9.20;84.42;100132.29;103583;1254;99132;-75
2024/03/22 08:39:25;;;;;;;36.30;27.60;;;;;;;9.21;84.09;100128.08;103353;1257;139508;-75
2024/03/22 08:41:52;;;;;;;40.60;27.90;;;;;;;9.21;84.02;100126.87;103467;1253;107822;-75
2024/03/22 08:44:18;;;;;;;35.50;26.90;;;;;;;9.23;83.90;100123.70;103348;1257;138821;-75
2024/03/22 08:46:45;;;;;;;35.00;26.50;;;;;;;9.26;83.98;100117.52;103439;1255;106905;-75
2024/03/22 08:49:12;;;;;;;34.50;25.60;;;;;;;9.32;83.97;100115.25;103354;1253;139080;-74
2024/03/22 08:51:39;;;;;;;31.90;24.80;;;;;;;9.41;83.66;100117.79;103385;1254;112252;-74
2024/03/22 08:54:06;;;;;;;30.70;23.80;;;;;;;9.44;83.21;100121.16;103392;1256;106801;-75
2024/03/22 08:56:33;;;;;;;30.40;21.80;;;;;;;9.44;82.72;100115.26;103234;1257;139054;-75
2024/03/22 08:59:00;;;;;;;29.00;21.50;;;;;;;9.45;82.64;100115.91;103410;1256;107747;-75
2024/03/22 09:01:26;;;;;;;30.40;22.50;;;;;;;9.48;82.58;100119.29;103295;1254;140076;-75
2024/03/22 09:03:53;;;;;;;27.70;22.00;;;;;;;9.50;82.41;100116.65;103377;1254;112739;-75
2024/03/22 09:06:20;;;;;;;27.00;21.40;;;;;;;9.52;82.56;100112.09;103342;1257;108175;-74
2024/03/22 09:08:46;;;;;;;29.20;22.90;;;;;;;9.54;82.51;100114.27;103372;1256;139414;-76
2024/03/22 09:11:13;;;;;;;31.00;23.20;;;;;;;9.57;82.35;100119.23;103387;1256;107886;-76
2024/03/22 09:13:40;;;;;;;30.30;22.50;;;;;;;9.59;82.37;100117.23;103397;1254;139079;-76
2024/03/22 09:16:07;;;;;;;32.10;24.40;;;;;;;9.59;82.31;100116.20;103478;1255;112853;-75
2024/03/22 09:18:33;;;;;;;35.30;25.20;;;;;;;9.60;82.34;100114.42;103220;1257;107616;-75
2024/03/22 09:21:00;;;;;;;37.60;27.10;;;;;;;9.61;82.30;100113.89;103335;1256;139943;-75
2024/03/22 09:23:27;;;;;;;38.30;28.40;;;;;;;9.61;82.33;100112.84;103377;1257;107995;-75
2024/03/22 09:25:51;;;;;;;;;;;;;;;9.61;82.28;100110.06;103257;1254;139189;-76
2024/03/22 09:28:18;;;;;;;42.60;28.70;;;;;;;9.58;82.39;100106.52;103491;1253;114062;-75
2024/03/22 09:30:44;;;;;;;;;;;;;;;9.54;82.28;100099.18;103400;1257;106836;-75
2024/03/22 09:33:22;;;;;;;38.10;28.00;;;;;;;9.48;82.43;100101.08;103844;1254;124762;-73
2024/03/22 09:35:47;;;;;;;;;;;;;;;9.47;82.53;100099.74;103221;1257;107706;-74
2024/03/22 09:38:15;;;;;;;33.80;24.90;;;;;;;9.42;82.72;100101.80;103175;1257;126054;-77
2024/03/22 09:40:41;;;;;;;38.60;27.10;;;;;;;9.42;82.73;100095.55;103437;1257;113528;-76
2024/03/22 09:43:10;;;;;;;33.70;25.80;;;;;;;9.42;82.59;100092.23;103473;1254;106633;-75
2024/03/22 09:45:37;;;;;;;36.00;26.10;;;;;;;9.45;82.78;100092.67;103550;1254;99683;-75
2024/03/22 09:48:03;;;;;;;35.90;26.30;;;;;;;9.48;82.96;100086.67;103423;1256;106064;-75
2024/03/22 09:50:30;;;;;;;32.30;24.60;;;;;;;9.54;82.95;100088.60;103299;1254;140778;-75
2024/03/22 09:52:58;;;;;;;31.00;23.60;;;;;;;9.58;82.68;100086.37;103438;1256;112917;-73
2024/03/22 09:55:25;;;;;;;32.00;23.80;;;;;;;9.58;82.38;100085.67;103324;1256;139240;-77
2024/03/22 09:57:53;;;;;;;31.10;23.80;;;;;;;9.58;82.48;100083.08;103457;1251;99510;-76
2024/03/22 10:00:21;;;;;;;35.50;24.80;;;;;;;9.60;82.53;100076.41;103421;1254;108461;-75
2024/03/22 10:02:49;;;;;;;33.10;23.60;;;;;;;9.61;82.36;100074.14;103371;1254;139014;-76
2024/03/22 10:05:17;;;;;;;29.50;21.40;;;;;;;9.55;82.22;100079.02;103444;1254;112016;-77
2024/03/22 10:07:45;;;;;;;28.00;21.10;;;;;;;9.58;82.41;100074.94;103141;1254;140225;-76
2024/03/22 10:10:14;;;;;;;28.40;21.30;;;;;;;9.60;82.32;100070.69;103440;1256;99721;-76
2024/03/22 10:12:40;;;;;;;26.80;21.00;;;;;;;9.61;82.30;100070.16;103430;1254;107740;-76
2024/03/22 10:15:09;;;;;;;27.40;20.40;;;;;;;9.62;82.24;100064.89;103219;1254;138929;-76
2024/03/22 10:17:38;;;;;;;29.10;20.90;;;;;;;9.57;82.05;100065.08;103434;1254;112940;-75
2024/03/22 10:20:06;;;;;;;26.50;20.00;;;;;;;9.49;82.32;100061.65;103355;1254;139801;-77
2024/03/22 10:22:33;;;;;;;29.70;22.40;;;;;;;9.40;82.49;100062.14;103934;1253;97097;-76
2024/03/22 10:25:00;;;;;;;;;;;;;;;9.34;83.01;100064.73;103465;1253;107318;-75
2024/03/22 10:27:29;;;;;;;29.80;22.70;;;;;;;9.29;83.54;100061.05;103354;1254;124803;-76
2024/03/22 10:29:56;;;;;;;32.70;23.50;;;;;;;9.27;83.81;100060.95;103444;1254;112676;-77
2024/03/22 10:32:23;;;;;;;30.00;23.10;;;;;;;9.25;84.29;100053.56;103316;1254;139689;-75
2024/03/22 10:34:51;;;;;;;29.90;23.80;;;;;;;9.26;84.37;100059.58;103295;1254;99155;-77
2024/03/22 10:37:18;;;;;;;27.10;23.00;;;;;;;9.24;84.65;100055.81;103214;1254;138817;-76
2024/03/22 10:39:44;;;;;;;34.30;24.90;;;;;;;9.21;84.85;100055.74;103369;1254;99113;-76
2024/03/22 10:42:12;;;;;;;30.90;25.10;;;;;;;9.20;85.14;100056.48;103141;1257;112161;-76
2024/03/22 10:44:41;;;;;;;29.80;24.10;;;;;;;9.16;85.23;100054.17;103226;1253;139035;-79
2024/03/22 10:47:14;;;;;;;33.70;25.50;;;;;;;9.07;85.41;100043.85;103366;1254;99157;-78
2024/03/22 10:49:41;;;;;;;32.50;24.50;;;;;;;9.10;85.75;100047.39;103268;1252;140390;-79
2024/03/22 10:52:13;;;;;;;31.40;25.00;;;;;;;9.10;85.88;100041.84;103355;1254;99088;-77
2024/03/22 10:54:45;;;;;;;31.20;24.40;;;;;;;9.08;85.93;100041.72;103412;1253;112591;-76
2024/03/22 10:57:15;;;;;;;32.40;25.10;;;;;;;9.07;86.07;100039.67;103327;1257;138825;-78
2024/03/22 10:59:46;;;;;;;33.00;25.50;;;;;;;9.12;86.31;100039.89;103376;1257;99683;-78
2024/03/22 11:02:14;;;;;;;32.00;25.30;;;;;;;9.23;86.39;100035.02;103372;1256;138676;-78
2024/03/22 11:04:40;;;;;;;33.20;25.60;;;;;;;9.36;86.42;100029.80;103528;1252;99273;-77
2024/03/22 11:07:06;;;;;;;;;;;;;;;9.47;86.15;100025.46;103418;1256;113063;-78
2024/03/22 11:09:32;;;;;;;30.60;24.00;;;;;;;9.54;86.09;100022.82;103316;1254;124778;-77
2024/03/22 11:11:58;;;;;;;;;;;;;;;9.67;86.08;100015.80;103534;1254;99176;-75
2024/03/22 11:14:25;;;;;;;28.80;22.60;;;;;;;9.85;85.61;100015.58;103353;1254;124903;-78